Guarulhos - Governador André Franco Montoro International Airport
SBGR : now visible

Airfield :











YOU CAN JOIN US ON...

 
LOGIN :

Register | Disclaimer

   EN    FR    IT 

 









Legend :    VFR   Marginal VFR   IFR   Intensive IFR   Very Intensive IFR
Visi :
Ceiling :
>= 8 km
>= 3000ft
5 to 8 km
1000 to 3000 ft
1500m to 5 km
500 to 1000 ft
800 to 1500m
200 to 500 ft
< 800m
< 200 ft
Symbols :   Thunderstorms  Fog  Heavy snow  Heavy precipitations  Wind > 20 kt






- Airport Elevation : 2459 ft
- IATA code : GRU


SBGR - Guarulhos - Governador André Franco Montoro International

CURRENT METAR :
  • 311900Z 17009KT 9999 BKN013 OVC020 17/14 Q1018

EXPIRED METARs :
  • 311800Z 14008KT 9999 BKN018 OVC025 18/14 Q1018
  • 311700Z 13010KT 9999 OVC020 19/14 Q1019

TAF TAF SBGR
Valid from the 31 at 18:00 until the 02 at 00:00 UTC


311615Z 3118/0124 16008KT 9000 BKN015 TN14/0109Z TX22/0118Z
TEMPO 3118/0101 4000 RA BR BKN008
TEMPO 0101/0106 12005KT 5000 DZ BR SCT006 BKN013
PROB30 0107/0111 10003KT 4000 DZ BR BKN006
BECMG 0111/0113 12007KT 9999 BKN017
BECMG 0114/0116 15007KT 9999 BKN023
TEMPO 0116/0120 6000 DZ BKN012
BECMG 0120/0122 BKN013 RMK PGO
SBCW FIR / South America



MET'MAP, your aeronautical weather chart ! - Copyright ORBIFLY December 2007 - Disclaimer

ORBIFLY MET'MAP TEAM :

Programming & Development : Alexandra Zaïnal
Concept & original design : Baudouin d'Aumeries
Assistance for programming : Marc-Olivier Méhu
Technical & hardware support : Manuel Goepfert

Contact : metmap@orbifly.com




SOURCES & CREDITS :

   NOAA       Earth
Advisory